Terminal Aerodrome Forecast
Issued by NWS Sioux Falls, SD

Home | Current Version | Previous Version | Text Only | Print | Product List | Glossary On
Versions: 1 2 3 4 5 6 7 8 9 10 11 12 13
339
FTUS43 KFSD 051724
TAFHON
TAF
KHON 051724Z 0518/0618 27012KT P6SM SCT150
     FM052000 29015G23KT P6SM BKN110
     FM060000 28015G25KT P6SM BKN015
     FM060200 30018G27KT P6SM BKN035
     FM061300 30019G33KT P6SM BKN025
     FM061600 30020G31KT P6SM SCT035=

USA.gov is the U.S. government's official web portal to all federal, state and local government web resources and services.